Time;durP1;ratioP1;P1;durP2;ratioP2;P2;SDS_P1;SDS_P2;PMS_P1;PMS_P2;Temp;Humidity;BMP_temperature;BMP_pressure;BME280_temperature;BME280_humidity;BME280_pressure;Samples;Min_cycle;Max_cycle;Signal;HPM_P1;HPM_P2
2023/04/30 00:02:22;;;;;;;44.37;26.57;;;6.80;99.90;;;;;;4995118;28;20572;-58
2023/04/30 00:04:51;;;;;;;46.00;25.53;;;6.80;99.90;;;;;;4995038;28;20234;-58
2023/04/30 00:07:20;;;;;;;42.03;25.43;;;6.70;99.90;;;;;;4989204;28;20199;-58
2023/04/30 00:09:50;;;;;;;46.67;25.83;;;6.70;99.90;;;;;;4994309;28;20214;-58
2023/04/30 00:12:18;;;;;;;46.37;26.73;;;6.70;99.90;;;;;;4998185;28;20230;-58
2023/04/30 00:14:48;;;;;;;46.50;25.97;;;6.70;99.90;;;;;;4996761;28;20214;-58
2023/04/30 00:17:16;;;;;;;44.80;26.63;;;6.70;99.90;;;;;;4996764;28;20223;-58
2023/04/30 00:19:44;;;;;;;45.63;25.67;;;6.60;99.90;;;;;;4995210;28;20195;-59
2023/04/30 00:22:13;;;;;;;53.47;27.80;;;6.60;99.90;;;;;;4995676;28;20203;-58
2023/04/30 00:24:42;;;;;;;48.50;27.17;;;6.70;99.90;;;;;;4993524;28;20771;-58
2023/04/30 00:27:10;;;;;;;48.53;26.83;;;6.60;99.90;;;;;;4975390;28;20223;-58
2023/04/30 00:29:41;;;;;;;47.33;25.30;;;6.60;99.90;;;;;;4992425;28;20409;-58
2023/04/30 00:32:09;;;;;;;41.80;23.07;;;6.60;99.90;;;;;;4994550;28;20696;-58
2023/04/30 00:34:37;;;;;;;35.40;22.60;;;6.60;99.90;;;;;;4986504;28;20195;-58
2023/04/30 00:37:06;;;;;;;35.07;22.03;;;6.50;99.90;;;;;;5002072;28;20225;-58
2023/04/30 00:39:36;;;;;;;41.33;23.97;;;6.40;99.90;;;;;;5008035;28;20218;-58
2023/04/30 00:42:07;;;;;;;38.50;23.03;;;6.50;99.90;;;;;;4994804;28;20685;-58
2023/04/30 00:44:37;;;;;;;37.70;22.93;;;6.40;99.90;;;;;;4995902;28;20219;-58
2023/04/30 00:47:05;;;;;;;40.47;24.07;;;6.40;99.90;;;;;;5003172;28;20625;-58
2023/04/30 00:49:34;;;;;;;44.63;24.17;;;6.40;99.90;;;;;;4988366;28;20577;-58
2023/04/30 00:52:02;;;;;;;39.83;23.90;;;6.30;99.90;;;;;;5000515;28;20301;-58
2023/04/30 00:54:30;;;;;;;43.13;24.63;;;6.30;99.90;;;;;;4993390;28;20269;-57
2023/04/30 00:56:59;;;;;;;41.70;24.50;;;6.30;99.90;;;;;;5005966;28;20214;-58
2023/04/30 00:59:30;;;;;;;40.70;24.20;;;6.20;99.90;;;;;;4999495;28;20238;-58
2023/04/30 01:04:58;;;;;;;40.67;21.50;;;6.20;99.90;;;;;;5371487;23;1154890;-62
2023/04/30 01:07:27;;;;;;;41.17;23.47;;;6.10;99.90;;;;;;4993935;28;20237;-62
2023/04/30 01:09:55;;;;;;;42.17;23.97;;;6.00;99.90;;;;;;4988247;28;20207;-61
2023/04/30 01:12:39;;;;;;;43.87;24.80;;;6.00;99.90;;;;;;4992220;28;20237;-62
2023/04/30 01:15:15;;;;;;;40.90;23.97;;;6.00;99.90;;;;;;4984599;28;20272;-61
2023/04/30 01:17:52;;;;;;;43.03;25.50;;;6.00;99.90;;;;;;4986767;28;20269;-61
2023/04/30 01:20:22;;;;;;;40.67;24.10;;;6.00;99.90;;;;;;4991836;28;20230;-61
2023/04/30 01:22:55;;;;;;;42.40;24.57;;;6.00;99.90;;;;;;4990986;28;20242;-61
2023/04/30 01:25:42;;;;;;;44.33;25.03;;;6.00;99.90;;;;;;4995413;28;20238;-61
2023/04/30 01:28:14;;;;;;;40.27;24.47;;;5.90;99.90;;;;;;4983559;28;20227;-61
2023/04/30 01:30:44;;;;;;;41.77;24.33;;;5.90;99.90;;;;;;4988517;28;20221;-61
2023/04/30 01:33:13;;;;;;;44.57;24.77;;;5.90;99.90;;;;;;4993413;28;20258;-61
2023/04/30 01:35:58;;;;;;;43.53;24.53;;;5.90;99.90;;;;;;4993433;28;20325;-61
2023/04/30 01:38:40;;;;;;;45.57;24.30;;;5.90;99.90;;;;;;4991563;28;20230;-61
2023/04/30 01:41:14;;;;;;;45.67;23.50;;;5.90;99.90;;;;;;4997616;28;20277;-61
2023/04/30 01:43:55;;;;;;;39.63;23.03;;;5.80;99.90;;;;;;4994056;28;20261;-61
2023/04/30 01:46:27;;;;;;;42.53;23.93;;;5.80;99.90;;;;;;4998907;28;20246;-61
2023/04/30 01:49:09;;;;;;;47.63;24.70;;;5.80;99.90;;;;;;4993720;28;20218;-61
2023/04/30 01:51:41;;;;;;;42.03;24.50;;;5.70;99.90;;;;;;4995317;28;20619;-61
2023/04/30 01:54:17;;;;;;;36.57;22.10;;;5.70;99.90;;;;;;4996332;28;20233;-61
2023/04/30 01:56:55;;;;;;;40.43;22.90;;;5.70;99.90;;;;;;4972691;28;20241;-61
2023/04/30 01:59:25;;;;;;;42.43;23.73;;;5.70;99.90;;;;;;4996210;28;20277;-61
2023/04/30 02:01:56;;;;;;;40.23;23.77;;;5.70;99.90;;;;;;4989552;28;20229;-61
2023/04/30 02:04:24;;;;;;;40.53;25.13;;;5.60;99.90;;;;;;4982306;28;20254;-61
2023/04/30 02:06:53;;;;;;;46.03;25.43;;;5.60;99.90;;;;;;4967973;28;20215;-61
2023/04/30 02:09:22;;;;;;;47.63;25.83;;;5.60;99.90;;;;;;4973218;28;20856;-61
2023/04/30 02:11:51;;;;;;;42.17;24.40;;;5.60;99.90;;;;;;4950512;28;20227;-61
2023/04/30 02:14:19;;;;;;;45.33;24.20;;;5.60;99.90;;;;;;4968470;28;20314;-61
2023/04/30 02:16:49;;;;;;;44.63;23.70;;;5.60;99.90;;;;;;4969654;28;20231;-61
2023/04/30 02:19:17;;;;;;;43.63;22.00;;;5.60;99.90;;;;;;4973053;28;20288;-61
2023/04/30 02:21:45;;;;;;;39.30;22.53;;;5.60;99.90;;;;;;4970818;28;20716;-61
2023/04/30 02:24:13;;;;;;;40.67;22.47;;;5.60;99.90;;;;;;4973488;28;20278;-61
2023/04/30 02:26:42;;;;;;;35.83;20.20;;;5.50;99.90;;;;;;4970284;28;20658;-61
2023/04/30 02:29:10;;;;;;;34.07;20.67;;;5.50;99.90;;;;;;4967393;28;20227;-61
2023/04/30 02:31:38;;;;;;;40.50;21.83;;;5.40;99.90;;;;;;4970691;28;20214;-60
2023/04/30 02:34:08;;;;;;;37.67;21.63;;;5.40;99.90;;;;;;4967115;28;20291;-61
2023/04/30 02:36:36;;;;;;;38.83;21.07;;;5.30;99.90;;;;;;4973069;28;20220;-61
2023/04/30 02:39:05;;;;;;;37.93;21.20;;;5.30;99.90;;;;;;4972974;28;20219;-61
2023/04/30 02:41:33;;;;;;;39.00;21.03;;;5.30;99.90;;;;;;4969139;28;20645;-61
2023/04/30 02:44:02;;;;;;;35.07;21.13;;;5.30;99.90;;;;;;4967257;28;20220;-61
2023/04/30 02:46:30;;;;;;;38.77;21.43;;;5.20;99.90;;;;;;4967019;28;20195;-60
2023/04/30 02:48:58;;;;;;;40.53;20.77;;;5.30;99.90;;;;;;4967198;28;20188;-61
2023/04/30 02:51:28;;;;;;;37.00;21.03;;;5.30;99.90;;;;;;4967656;28;20223;-61
2023/04/30 02:53:56;;;;;;;36.93;19.53;;;5.30;99.90;;;;;;4951237;28;20290;-61
2023/04/30 02:56:25;;;;;;;35.90;19.80;;;5.20;99.90;;;;;;4969273;28;20711;-61
2023/04/30 02:58:53;;;;;;;35.47;20.00;;;5.20;99.90;;;;;;4949207;28;20231;-62
2023/04/30 03:01:21;;;;;;;35.43;21.07;;;5.10;99.90;;;;;;4968300;28;20187;-62
2023/04/30 03:03:50;;;;;;;37.67;21.67;;;5.10;99.90;;;;;;4970170;28;20222;-61
2023/04/30 03:06:18;;;;;;;37.03;21.27;;;5.10;99.90;;;;;;4966004;28;20250;-62
2023/04/30 03:08:48;;;;;;;35.33;20.67;;;5.10;99.90;;;;;;4968255;28;20219;-61
2023/04/30 03:11:16;;;;;;;34.63;20.57;;;5.10;99.90;;;;;;4968986;28;20273;-62
2023/04/30 03:13:45;;;;;;;40.43;21.43;;;5.00;99.90;;;;;;4965401;28;20662;-61
2023/04/30 03:16:13;;;;;;;34.00;20.50;;;5.00;99.90;;;;;;4972673;28;20705;-62
2023/04/30 03:18:41;;;;;;;35.63;19.80;;;5.00;99.90;;;;;;4971544;28;20300;-62
2023/04/30 03:21:09;;;;;;;34.87;20.43;;;5.00;99.90;;;;;;4966658;28;20231;-61
2023/04/30 03:23:38;;;;;;;31.07;18.67;;;4.90;99.90;;;;;;4952126;28;20234;-61
2023/04/30 03:26:08;;;;;;;30.00;17.97;;;4.90;99.90;;;;;;4972587;28;20222;-62
2023/04/30 03:28:36;;;;;;;29.37;16.70;;;4.80;99.90;;;;;;4979260;28;20195;-61
2023/04/30 03:31:05;;;;;;;31.20;17.83;;;4.80;99.90;;;;;;4974188;28;20199;-62
2023/04/30 03:33:33;;;;;;;29.50;17.60;;;4.80;99.90;;;;;;4973806;28;20236;-62
2023/04/30 03:36:02;;;;;;;33.30;18.40;;;4.80;99.90;;;;;;4968636;28;20260;-62
2023/04/30 03:38:30;;;;;;;30.67;18.33;;;4.80;99.90;;;;;;4973983;28;20231;-61
2023/04/30 03:40:58;;;;;;;28.20;16.90;;;4.80;99.90;;;;;;4975319;28;20692;-62
2023/04/30 03:43:28;;;;;;;29.83;17.43;;;4.70;99.90;;;;;;4972778;28;20187;-61
2023/04/30 03:45:56;;;;;;;33.37;17.60;;;4.70;99.90;;;;;;4977431;28;20218;-61
2023/04/30 03:48:24;;;;;;;29.87;17.77;;;4.70;99.90;;;;;;4977331;28;20212;-62
2023/04/30 03:50:53;;;;;;;34.00;19.33;;;4.70;99.90;;;;;;4975902;28;20219;-62
2023/04/30 03:53:21;;;;;;;33.57;18.10;;;4.70;99.90;;;;;;4970070;28;20231;-61
2023/04/30 03:55:49;;;;;;;31.47;17.93;;;4.70;99.90;;;;;;4966394;28;20222;-61
2023/04/30 03:58:18;;;;;;;33.53;18.80;;;4.70;99.90;;;;;;4970359;28;20266;-61
2023/04/30 04:00:48;;;;;;;28.70;17.63;;;4.80;99.90;;;;;;4972154;28;20228;-62
2023/04/30 04:03:16;;;;;;;32.10;18.17;;;4.80;99.90;;;;;;4979451;28;20277;-61
2023/04/30 04:05:45;;;;;;;31.87;16.70;;;4.80;99.90;;;;;;4969634;28;20242;-62
2023/04/30 04:08:14;;;;;;;33.33;17.63;;;4.70;99.90;;;;;;4976654;28;20219;-61
2023/04/30 04:10:43;;;;;;;27.37;15.67;;;4.80;99.90;;;;;;4966661;28;20188;-61
2023/04/30 04:13:11;;;;;;;30.80;17.40;;;4.70;99.90;;;;;;4979080;28;20242;-62
2023/04/30 04:15:40;;;;;;;26.53;15.97;;;4.70;99.90;;;;;;4971442;28;20219;-62
2023/04/30 04:18:10;;;;;;;27.87;17.30;;;4.60;99.90;;;;;;4972046;28;20296;-62
2023/04/30 04:20:38;;;;;;;31.47;17.77;;;4.60;99.90;;;;;;4970889;28;20225;-62
2023/04/30 04:23:06;;;;;;;28.47;17.40;;;4.60;99.90;;;;;;4972816;28;20752;-62
2023/04/30 04:25:35;;;;;;;27.83;16.97;;;4.60;99.90;;;;;;4969870;28;20650;-62
2023/04/30 04:28:03;;;;;;;31.47;17.43;;;4.70;99.90;;;;;;4975423;28;20204;-62
2023/04/30 04:30:32;;;;;;;32.43;16.87;;;4.70;99.90;;;;;;4953307;28;20769;-62
2023/04/30 04:33:01;;;;;;;29.23;16.43;;;4.70;99.90;;;;;;4969415;28;20215;-62
2023/04/30 04:35:31;;;;;;;26.67;16.17;;;4.70;99.90;;;;;;4968550;28;20256;-62
2023/04/30 04:37:59;;;;;;;30.50;17.33;;;4.70;99.90;;;;;;4976102;28;20258;-62
2023/04/30 04:40:27;;;;;;;30.60;16.90;;;4.80;99.90;;;;;;4979575;28;20192;-60
2023/04/30 04:42:58;;;;;;;27.23;16.03;;;4.80;99.90;;;;;;4970191;28;20205;-63
2023/04/30 04:45:27;;;;;;;28.90;16.80;;;4.80;99.90;;;;;;4965348;28;20574;-62
2023/04/30 04:47:55;;;;;;;25.17;15.67;;;4.80;99.90;;;;;;4970846;28;20219;-62
2023/04/30 04:50:24;;;;;;;29.20;16.37;;;4.80;99.90;;;;;;4970012;28;20243;-62
2023/04/30 04:52:54;;;;;;;27.10;16.03;;;4.80;99.90;;;;;;4960815;28;20242;-62
2023/04/30 04:55:22;;;;;;;29.30;16.30;;;4.80;99.90;;;;;;4969687;28;20215;-62
2023/04/30 04:57:50;;;;;;;32.47;17.47;;;4.90;99.90;;;;;;4969688;28;20271;-62
2023/04/30 05:00:20;;;;;;;32.87;16.43;;;5.00;99.90;;;;;;4974491;28;20266;-62
2023/04/30 05:02:49;;;;;;;30.20;16.13;;;5.10;99.90;;;;;;4969855;28;20372;-62
2023/04/30 05:05:17;;;;;;;29.40;17.10;;;5.20;99.90;;;;;;4967414;28;20234;-62
2023/04/30 05:07:46;;;;;;;26.03;16.43;;;5.20;99.90;;;;;;4955173;28;20216;-62
2023/04/30 05:10:15;;;;;;;30.53;16.50;;;5.30;99.90;;;;;;4954763;28;20262;-62
2023/04/30 05:12:44;;;;;;;28.67;16.70;;;5.40;99.90;;;;;;4973663;28;20499;-62
2023/04/30 05:15:12;;;;;;;28.30;17.07;;;5.40;99.90;;;;;;4968920;28;20425;-63
2023/04/30 05:17:40;;;;;;;29.70;16.33;;;5.50;99.90;;;;;;4970641;28;20219;-62
2023/04/30 05:20:11;;;;;;;28.27;15.90;;;5.60;99.90;;;;;;4946709;28;20271;-62
2023/04/30 05:22:39;;;;;;;29.77;16.97;;;5.70;99.90;;;;;;4971088;28;20192;-62
2023/04/30 05:25:08;;;;;;;26.90;16.17;;;5.80;99.90;;;;;;4963580;28;20216;-63
2023/04/30 05:27:38;;;;;;;29.47;17.17;;;6.00;99.90;;;;;;4962054;28;20223;-62
2023/04/30 05:30:08;;;;;;;27.53;16.67;;;6.10;99.90;;;;;;4977839;28;20220;-62
2023/04/30 05:32:36;;;;;;;26.67;16.40;;;6.40;99.90;;;;;;4978660;28;20231;-62
2023/04/30 05:35:05;;;;;;;30.77;17.77;;;6.50;99.90;;;;;;4971546;28;20258;-62
2023/04/30 05:37:33;;;;;;;24.93;15.87;;;6.70;99.90;;;;;;4970831;28;20199;-62
2023/04/30 05:40:02;;;;;;;24.80;15.77;;;6.90;99.90;;;;;;4967022;28;20227;-62
2023/04/30 05:42:30;;;;;;;28.83;16.07;;;7.00;99.90;;;;;;4971841;28;20227;-63
2023/04/30 05:45:00;;;;;;;25.40;15.77;;;7.30;99.90;;;;;;4973396;28;20216;-63
2023/04/30 05:47:28;;;;;;;22.47;15.10;;;7.40;99.90;;;;;;4969998;28;20274;-63
2023/04/30 05:49:56;;;;;;;21.47;14.83;;;7.60;99.90;;;;;;4965243;28;20704;-62
2023/04/30 05:52:24;;;;;;;23.77;13.90;;;7.80;99.90;;;;;;4977707;28;20221;-62
2023/04/30 05:54:53;;;;;;;32.47;15.10;;;8.00;99.90;;;;;;4980110;28;20657;-62
2023/04/30 05:57:22;;;;;;;22.87;14.57;;;8.20;99.90;;;;;;4975694;28;20649;-63
2023/04/30 05:59:50;;;;;;;22.20;14.73;;;8.40;99.90;;;;;;4973827;28;20298;-63
2023/04/30 06:02:20;;;;;;;21.73;14.27;;;8.60;99.90;;;;;;4978754;28;20235;-62
2023/04/30 06:04:48;;;;;;;26.10;14.43;;;8.80;99.90;;;;;;4976336;28;20223;-62
2023/04/30 06:07:17;;;;;;;20.50;14.53;;;9.00;99.90;;;;;;4966055;28;20243;-63
2023/04/30 06:09:45;;;;;;;20.30;14.03;;;9.20;99.90;;;;;;4970264;28;20285;-63
2023/04/30 06:12:13;;;;;;;20.80;14.30;;;9.40;99.90;;;;;;4966310;28;20257;-62
2023/04/30 06:14:44;;;;;;;19.93;14.03;;;9.60;99.90;;;;;;4973261;28;20238;-63
2023/04/30 06:17:12;;;;;;;19.40;14.00;;;9.80;99.90;;;;;;4965559;28;20224;-62
2023/04/30 06:19:42;;;;;;;18.80;13.03;;;9.90;99.90;;;;;;4963490;28;20211;-62
2023/04/30 06:22:10;;;;;;;27.73;14.73;;;10.10;99.90;;;;;;4975338;28;20196;-62
2023/04/30 06:24:38;;;;;;;20.83;13.87;;;10.30;99.90;;;;;;4969658;28;20239;-62
2023/04/30 06:27:07;;;;;;;22.33;13.77;;;10.40;99.90;;;;;;4969175;28;20285;-62
2023/04/30 06:29:35;;;;;;;17.83;13.10;;;10.60;99.90;;;;;;4970334;28;20354;-62
2023/04/30 06:32:03;;;;;;;18.90;12.50;;;10.80;99.90;;;;;;4973921;28;20602;-63
2023/04/30 06:34:35;;;;;;;23.27;14.30;;;10.90;99.90;;;;;;4964540;28;20203;-62
2023/04/30 06:37:05;;;;;;;20.60;13.30;;;11.10;99.90;;;;;;4966315;28;20196;-63
2023/04/30 06:39:33;;;;;;;20.70;14.03;;;11.30;99.90;;;;;;4965617;28;20263;-63
2023/04/30 06:42:02;;;;;;;19.97;13.70;;;11.50;99.90;;;;;;4972965;28;20625;-62
2023/04/30 06:44:31;;;;;;;18.83;13.47;;;11.60;99.90;;;;;;4954888;28;20224;-62
2023/04/30 06:47:00;;;;;;;17.30;13.47;;;11.70;99.90;;;;;;4979994;28;20249;-62
2023/04/30 06:49:28;;;;;;;20.50;13.40;;;11.80;99.90;;;;;;4972852;28;20195;-62
2023/04/30 06:51:57;;;;;;;19.70;13.17;;;11.90;99.90;;;;;;4969754;28;20198;-63
2023/04/30 06:54:26;;;;;;;18.90;13.13;;;12.00;99.90;;;;;;4968095;28;20740;-63
2023/04/30 06:56:55;;;;;;;19.77;13.70;;;12.30;99.90;;;;;;4973268;28;20227;-63
2023/04/30 06:59:23;;;;;;;17.93;13.83;;;12.50;99.90;;;;;;4958826;28;20227;-63
2023/04/30 07:01:52;;;;;;;19.03;13.60;;;12.50;99.90;;;;;;4977943;28;20820;-63
2023/04/30 07:04:20;;;;;;;18.90;13.57;;;12.60;99.90;;;;;;4972192;28;20232;-63
2023/04/30 07:06:49;;;;;;;20.87;14.53;;;12.70;99.90;;;;;;4970408;28;20211;-63
2023/04/30 07:09:18;;;;;;;18.20;13.57;;;13.00;99.90;;;;;;4950857;28;20226;-63
2023/04/30 07:11:47;;;;;;;18.37;13.20;;;13.10;99.90;;;;;;4972243;28;20255;-64
2023/04/30 07:14:16;;;;;;;18.73;14.03;;;13.30;99.90;;;;;;4976275;28;20226;-63
2023/04/30 07:16:45;;;;;;;23.67;14.23;;;13.50;99.90;;;;;;4969764;28;20223;-63
2023/04/30 07:19:13;;;;;;;17.37;13.60;;;13.50;99.90;;;;;;4970750;28;20218;-64
2023/04/30 07:21:41;;;;;;;17.37;13.77;;;13.90;99.90;;;;;;4975468;28;20279;-64
2023/04/30 07:24:10;;;;;;;19.00;13.33;;;14.00;99.90;;;;;;4953853;28;20246;-63
2023/04/30 07:26:38;;;;;;;21.17;14.53;;;14.10;99.90;;;;;;4945567;28;20212;-63
2023/04/30 07:29:07;;;;;;;20.33;14.50;;;14.30;99.90;;;;;;4972070;28;20686;-64
2023/04/30 07:31:36;;;;;;;17.83;13.60;;;14.30;99.90;;;;;;4967096;28;20199;-63
2023/04/30 07:34:04;;;;;;;20.97;14.53;;;14.50;99.90;;;;;;4965804;28;20209;-63
2023/04/30 07:36:32;;;;;;;18.17;13.73;;;14.50;99.90;;;;;;4963889;28;20627;-64
2023/04/30 07:39:00;;;;;;;19.43;14.27;;;14.70;99.90;;;;;;4969036;28;20217;-63
2023/04/30 07:41:29;;;;;;;18.60;14.00;;;14.70;99.90;;;;;;4966428;28;20220;-63
2023/04/30 07:43:58;;;;;;;19.30;13.83;;;14.90;99.90;;;;;;4975000;28;20226;-64
2023/04/30 07:46:28;;;;;;;19.90;13.83;;;15.30;99.90;;;;;;4972400;28;20202;-63
2023/04/30 07:48:56;;;;;;;18.23;14.13;;;15.60;99.90;;;;;;4968892;28;20879;-64
2023/04/30 07:51:25;;;;;;;18.07;14.43;;;15.70;99.90;;;;;;4972817;28;20226;-64
2023/04/30 07:53:54;;;;;;;21.57;14.07;;;15.80;99.90;;;;;;4945836;28;20813;-64
2023/04/30 07:56:22;;;;;;;21.63;14.47;;;15.80;99.90;;;;;;4963847;28;20262;-64
2023/04/30 07:58:50;;;;;;;16.83;13.53;;;15.90;99.90;;;;;;4965599;28;20222;-64
2023/04/30 08:01:18;;;;;;;21.37;14.10;;;16.00;99.90;;;;;;4965987;28;20811;-64
2023/04/30 08:03:48;;;;;;;19.77;14.57;;;16.30;99.90;;;;;;4967811;28;20686;-62
2023/04/30 08:06:17;;;;;;;19.57;14.03;;;16.60;99.90;;;;;;4965225;28;20614;-64
2023/04/30 08:08:45;;;;;;;17.77;14.00;;;16.80;99.90;;;;;;4962501;28;20602;-65
2023/04/30 08:11:15;;;;;;;18.27;13.37;;;16.90;99.90;;;;;;4941013;28;20288;-64
2023/04/30 08:13:44;;;;;;;16.10;13.20;;;16.90;99.90;;;;;;4942203;28;20201;-64
2023/04/30 08:16:12;;;;;;;20.00;15.10;;;17.00;99.90;;;;;;4972468;28;20199;-64
2023/04/30 08:18:43;;;;;;;20.03;15.63;;;17.30;99.90;;;;;;4969146;28;20250;-64
2023/04/30 08:21:13;;;;;;;18.53;14.17;;;17.90;99.90;;;;;;4970161;28;20248;-64
2023/04/30 08:23:41;;;;;;;18.50;13.90;;;18.20;99.90;;;;;;4959636;28;20226;-65
2023/04/30 08:26:10;;;;;;;21.77;14.47;;;18.50;99.90;;;;;;4964290;28;20285;-64
2023/04/30 08:28:38;;;;;;;17.87;13.63;;;18.60;99.90;;;;;;4980255;28;20676;-64
2023/04/30 08:31:07;;;;;;;19.10;14.40;;;18.70;99.90;;;;;;4975421;28;20195;-63
2023/04/30 08:33:35;;;;;;;18.43;14.17;;;18.70;99.90;;;;;;4970225;28;20570;-65
2023/04/30 08:36:04;;;;;;;20.83;14.33;;;19.00;99.90;;;;;;4969954;28;20243;-65
2023/04/30 08:38:34;;;;;;;19.10;13.50;;;19.40;99.90;;;;;;4968579;28;20227;-65
2023/04/30 08:41:09;;;;;;;16.93;13.47;;;19.40;99.90;;;;;;4972092;28;20307;-62
2023/04/30 08:43:37;;;;;;;17.13;13.77;;;19.40;99.90;;;;;;4969234;28;20207;-62
2023/04/30 08:46:06;;;;;;;18.30;12.93;;;19.60;99.90;;;;;;4979573;28;20201;-62
2023/04/30 08:48:35;;;;;;;15.13;12.43;;;19.80;99.90;;;;;;4967389;28;20207;-63
2023/04/30 08:51:04;;;;;;;14.27;11.57;;;20.00;99.90;;;;;;4973087;28;20220;-63
2023/04/30 08:53:36;;;;;;;15.65;12.27;;;20.30;99.90;;;;;;4954288;28;20697;-62
2023/04/30 08:56:06;;;;;;;13.97;12.40;;;20.50;99.90;;;;;;4958827;28;20220;-62
2023/04/30 08:58:34;;;;;;;12.43;11.23;;;20.80;99.90;;;;;;4962460;28;20197;-62
2023/04/30 09:01:06;;;;;;;17.50;12.80;;;21.10;99.90;;;;;;4972275;28;20204;-62
2023/04/30 09:03:35;;;;;;;14.82;11.57;;;21.30;99.90;;;;;;4973751;28;20231;-63
2023/04/30 09:06:03;;;;;;;12.82;11.60;;;21.70;99.90;;;;;;4973607;28;20304;-62
2023/04/30 09:08:46;;;;;;;18.33;12.70;;;21.90;99.90;;;;;;4973558;28;20226;-62
2023/04/30 09:11:26;;;;;;;13.55;11.52;;;21.90;99.90;;;;;;4975232;28;20230;-62
2023/04/30 09:13:56;;;;;;;13.05;11.02;;;22.00;99.90;;;;;;4953288;28;20233;-62
2023/04/30 09:16:26;;;;;;;13.93;11.23;;;22.50;99.90;;;;;;4979435;28;20198;-62
2023/04/30 09:18:55;;;;;;;13.95;11.25;;;22.80;99.90;;;;;;4969391;28;20707;-64
2023/04/30 09:21:31;;;;;;;13.48;10.88;;;22.80;99.90;;;;;;4972400;28;20239;-64
2023/04/30 09:24:03;;;;;;;16.23;11.05;;;22.40;99.90;;;;;;4968991;28;20244;-64
2023/04/30 09:26:33;;;;;;;12.45;10.50;;;22.70;99.90;;;;;;4976266;28;20295;-65
2023/04/30 09:29:06;;;;;;;11.43;10.20;;;23.20;99.90;;;;;;4958920;28;20226;-63
2023/04/30 09:31:35;;;;;;;12.70;10.57;;;24.00;99.90;;;;;;4956287;28;20228;-62
2023/04/30 09:34:04;;;;;;;12.77;11.48;;;23.90;99.90;;;;;;4966451;28;20248;-63
2023/04/30 09:36:34;;;;;;;11.82;10.63;;;23.40;99.90;;;;;;4968470;28;20222;-64
2023/04/30 09:39:12;;;;;;;12.55;9.90;;;23.30;99.90;;;;;;4977715;28;20739;-65
2023/04/30 09:41:43;;;;;;;14.43;10.43;;;23.20;99.90;;;;;;4971827;28;20619;-65
2023/04/30 09:44:27;;;;;;;13.80;10.85;;;23.40;99.90;;;;;;4976068;28;20695;-65
2023/04/30 09:46:57;;;;;;;10.35;9.23;;;23.40;99.90;;;;;;4971442;28;20267;-64
2023/04/30 09:49:26;;;;;;;13.43;10.13;;;23.30;99.90;;;;;;4973168;28;20201;-64
2023/04/30 09:51:55;;;;;;;10.20;9.30;;;23.00;99.90;;;;;;4950194;28;20694;-65
2023/04/30 09:54:27;;;;;;;10.20;9.18;;;23.00;99.90;;;;;;4974614;28;20322;-64
2023/04/30 09:56:57;;;;;;;10.07;9.07;;;23.30;99.90;;;;;;4968829;28;20282;-64
2023/04/30 09:59:30;;;;;;;6.68;5.97;;;23.50;99.90;;;;;;4963851;28;20221;-64
2023/04/30 10:02:00;;;;;;;11.15;8.77;;;23.90;99.90;;;;;;4970007;28;20633;-65
2023/04/30 10:04:33;;;;;;;14.70;8.48;;;24.50;99.90;;;;;;4963705;28;20624;-64
2023/04/30 10:07:06;;;;;;;9.43;8.52;;;24.70;99.90;;;;;;4966365;28;20252;-65
2023/04/30 10:09:42;;;;;;;9.98;7.70;;;24.40;99.90;;;;;;4968363;28;20707;-65
2023/04/30 10:12:15;;;;;;;11.77;8.80;;;24.20;99.90;;;;;;4967567;28;20289;-64
2023/04/30 10:14:52;;;;;;;11.32;7.50;;;24.10;99.90;;;;;;4967470;28;20301;-64
2023/04/30 10:17:24;;;;;;;9.03;8.20;;;23.40;99.90;;;;;;4982273;28;20278;-64
2023/04/30 10:19:55;;;;;;;9.33;7.60;;;23.20;99.90;;;;;;4968607;28;20279;-64
2023/04/30 10:22:24;;;;;;;9.67;8.30;;;23.10;99.90;;;;;;4978400;28;20208;-64
2023/04/30 10:24:54;;;;;;;9.97;8.63;;;23.30;99.90;;;;;;4953179;28;20229;-64
2023/04/30 10:27:23;;;;;;;10.45;7.68;;;23.10;99.90;;;;;;4974139;28;20540;-64
2023/04/30 10:29:51;;;;;;;10.75;8.65;;;23.30;99.90;;;;;;4977425;28;20713;-64
2023/04/30 10:32:22;;;;;;;10.80;7.90;;;23.40;99.90;;;;;;4952459;28;20783;-64
2023/04/30 10:34:58;;;;;;;11.00;7.73;;;22.90;99.90;;;;;;4959235;28;20223;-64
2023/04/30 10:37:32;;;;;;;9.20;8.10;;;22.10;99.90;;;;;;4955242;28;20255;-64
2023/04/30 10:40:03;;;;;;;13.13;8.33;;;21.70;99.90;;;;;;4963090;28;20350;-65
2023/04/30 10:42:37;;;;;;;9.10;8.27;;;22.20;99.90;;;;;;4963486;28;20231;-64
2023/04/30 10:45:11;;;;;;;13.67;8.60;;;22.40;99.90;;;;;;4950948;28;20223;-64
2023/04/30 10:47:42;;;;;;;8.77;7.60;;;22.80;99.90;;;;;;4965136;28;20220;-64
2023/04/30 10:50:11;;;;;;;9.20;7.73;;;22.70;99.90;;;;;;4971030;28;20231;-64
2023/04/30 10:52:40;;;;;;;9.30;7.83;;;22.60;99.90;;;;;;4963256;28;20200;-64
2023/04/30 10:55:10;;;;;;;7.63;6.80;;;23.00;99.90;;;;;;4966672;28;20223;-64
2023/04/30 10:57:42;;;;;;;8.53;6.87;;;23.20;99.90;;;;;;4965982;28;20215;-64
2023/04/30 11:00:24;;;;;;;11.07;7.97;;;23.10;99.90;;;;;;4966276;28;20227;-64
2023/04/30 11:02:57;;;;;;;9.17;8.27;;;23.10;99.90;;;;;;4965942;28;20226;-65
2023/04/30 11:05:37;;;;;;;8.53;7.73;;;23.20;99.90;;;;;;4962023;28;20234;-64
2023/04/30 11:08:10;;;;;;;8.17;6.97;;;23.00;99.90;;;;;;4962007;28;20266;-64
2023/04/30 11:10:57;;;;;;;7.97;6.83;;;23.00;99.90;;;;;;4965402;28;21062;-63
2023/04/30 11:13:27;;;;;;;7.53;6.83;;;22.20;99.90;;;;;;4958052;28;20722;-64
2023/04/30 11:16:02;;;;;;;7.33;6.33;;;22.10;99.90;;;;;;4947568;28;20222;-64
2023/04/30 11:18:31;;;;;;;9.17;7.03;;;22.50;99.90;;;;;;4966513;28;21222;-64
2023/04/30 11:20:59;;;;;;;7.40;6.40;;;23.20;99.90;;;;;;4947518;28;20223;-64
2023/04/30 11:23:27;;;;;;;9.57;7.13;;;23.30;99.90;;;;;;4967458;28;20231;-64
2023/04/30 11:26:10;;;;;;;7.23;6.53;;;22.50;99.90;;;;;;4965978;28;20665;-64
2023/04/30 11:28:38;;;;;;;8.03;7.20;;;21.40;99.90;;;;;;4958581;28;20712;-63
2023/04/30 11:31:07;;;;;;;7.50;6.80;;;21.30;99.90;;;;;;4965253;28;20209;-64
2023/04/30 11:33:35;;;;;;;7.90;7.10;;;21.60;99.90;;;;;;4969342;28;20220;-64
2023/04/30 11:36:04;;;;;;;7.43;6.70;;;21.60;99.90;;;;;;4965931;28;20687;-64
2023/04/30 11:38:35;;;;;;;7.53;6.63;;;21.90;99.90;;;;;;4967347;28;20221;-64
2023/04/30 11:41:04;;;;;;;7.30;6.10;;;22.40;99.90;;;;;;4951619;28;20233;-64
2023/04/30 11:43:35;;;;;;;7.03;6.33;;;22.30;99.90;;;;;;4961678;28;20262;-63
2023/04/30 11:46:09;;;;;;;7.17;6.47;;;22.00;99.90;;;;;;4967719;28;20217;-64
2023/04/30 11:48:39;;;;;;;7.23;6.33;;;21.50;99.90;;;;;;4966374;28;20241;-63
2023/04/30 11:51:15;;;;;;;6.77;6.07;;;21.10;99.90;;;;;;4974587;28;20551;-63
2023/04/30 11:53:46;;;;;;;5.57;5.17;;;21.00;99.90;;;;;;4953921;28;20227;-63
2023/04/30 11:56:14;;;;;;;6.90;5.90;;;21.00;99.90;;;;;;4971354;28;20222;-63
2023/04/30 11:58:46;;;;;;;8.70;6.00;;;20.90;99.90;;;;;;4978547;28;20201;-63
2023/04/30 12:01:15;;;;;;;6.50;5.90;;;20.60;99.90;;;;;;4971123;28;20192;-63
2023/04/30 12:03:45;;;;;;;6.00;5.50;;;20.70;99.90;;;;;;4980191;28;20224;-63
2023/04/30 12:06:22;;;;;;;6.70;6.03;;;20.80;99.90;;;;;;4961003;28;20636;-63
2023/04/30 12:08:53;;;;;;;7.13;6.03;;;20.90;99.90;;;;;;4964475;28;20234;-63
2023/04/30 12:11:23;;;;;;;5.53;4.93;;;21.00;99.90;;;;;;4965294;28;20231;-63
2023/04/30 12:13:56;;;;;;;6.20;5.20;;;21.40;99.90;;;;;;4969137;28;20262;-62
2023/04/30 12:16:25;;;;;;;9.07;5.67;;;21.40;99.90;;;;;;4964030;28;20212;-63
2023/04/30 12:18:54;;;;;;;7.07;5.20;;;21.20;99.90;;;;;;4969922;28;20231;-62
2023/04/30 12:21:23;;;;;;;4.70;4.30;;;21.30;99.90;;;;;;4979509;28;20227;-63
2023/04/30 12:23:51;;;;;;;4.90;4.40;;;21.00;99.90;;;;;;4968677;28;20238;-63
2023/04/30 12:26:19;;;;;;;4.60;4.30;;;21.20;99.90;;;;;;4967756;28;20262;-63
2023/04/30 12:28:48;;;;;;;4.50;4.20;;;21.20;99.90;;;;;;4973292;28;20229;-62
2023/04/30 12:31:19;;;;;;;4.73;4.37;;;20.90;99.90;;;;;;4962577;28;20272;-63
2023/04/30 12:33:56;;;;;;;4.57;4.17;;;20.90;99.90;;;;;;4966338;28;20223;-63
2023/04/30 12:36:31;;;;;;;5.80;5.30;;;20.90;99.90;;;;;;4980408;28;20231;-63
2023/04/30 12:39:07;;;;;;;5.80;5.30;;;20.80;99.90;;;;;;4970771;28;20219;-63
2023/04/30 12:41:38;;;;;;;5.10;4.67;;;20.80;99.90;;;;;;4964454;28;20731;-63
2023/04/30 12:44:20;;;;;;;5.87;5.00;;;20.90;99.90;;;;;;4970106;28;20306;-62
2023/04/30 12:46:52;;;;;;;5.73;5.07;;;21.30;99.90;;;;;;4967009;28;20223;-63
2023/04/30 12:49:28;;;;;;;5.63;5.13;;;21.20;99.90;;;;;;4968366;28;20669;-63
2023/04/30 12:52:01;;;;;;;11.73;5.20;;;21.30;99.90;;;;;;4965845;28;20233;-63
2023/04/30 12:54:31;;;;;;;6.10;5.17;;;21.20;99.90;;;;;;4959676;28;22078;-63